Time;durP1;ratioP1;P1;durP2;ratioP2;P2;SDS_P1;SDS_P2;PMS_P1;PMS_P2;Temp;Humidity;BMP_temperature;BMP_pressure;BME280_temperature;BME280_humidity;BME280_pressure;Samples;Min_cycle;Max_cycle;Signal;HPM_P1;HPM_P2
2022/10/25 00:01:46;;;;;;;0.10;0.10;;;;;;;;;;4952469;28;20418;-79
2022/10/25 00:04:13;;;;;;;0.17;0.17;;;;;;;;;;4951847;28;20571;-80
2022/10/25 00:06:40;;;;;;;0.10;0.10;;;;;;;;;;4951956;29;20567;-80
2022/10/25 00:09:06;;;;;;;0.10;0.10;;;;;;;;;;4951961;28;20414;-79
2022/10/25 00:11:32;;;;;;;0.10;0.10;;;;;;;;;;4950946;28;20421;-79
2022/10/25 00:14:00;;;;;;;0.05;0.05;;;;;;;;;;4951550;28;20917;-79
2022/10/25 00:16:28;;;;;;;0.10;0.10;;;;;;;;;;4951794;28;20436;-79
2022/10/25 00:18:54;;;;;;;0.00;0.00;;;;;;;;;;4949999;29;20416;-79
2022/10/25 00:21:21;;;;;;;0.10;0.10;;;;;;;;;;4965858;28;20476;-79
2022/10/25 00:23:47;;;;;;;0.10;0.10;;;;;;;;;;4951833;28;20433;-79
2022/10/25 00:26:13;;;;;;;0.10;0.10;;;;;;;;;;4967152;28;20510;-79
2022/10/25 00:28:39;;;;;;;0.10;0.10;;;;;;;;;;4951079;28;20481;-79
2022/10/25 00:31:07;;;;;;;0.10;0.10;;;;;;;;;;4966476;28;20505;-79
2022/10/25 00:33:33;;;;;;;0.10;0.10;;;;;;;;;;4951899;28;20417;-79
2022/10/25 00:36:06;;;;;;;0.60;0.20;;;;;;;;;;4966045;28;20417;-80
2022/10/25 00:38:32;;;;;;;0.10;0.10;;;;;;;;;;4952126;29;20418;-79
2022/10/25 00:40:58;;;;;;;0.10;0.10;;;;;;;;;;4951323;28;20476;-78
2022/10/25 00:43:39;;;;;;;0.20;0.20;;;;;;;;;;4951722;28;20491;-79
2022/10/25 00:46:09;;;;;;;0.08;0.08;;;;;;;;;;4951077;28;20761;-78
2022/10/25 00:48:35;;;;;;;0.10;0.10;;;;;;;;;;4966520;28;20417;-80
2022/10/25 00:51:02;;;;;;;0.17;0.17;;;;;;;;;;4951208;28;20417;-78
2022/10/25 00:53:31;;;;;;;0.10;0.10;;;;;;;;;;4951362;29;20413;-79
2022/10/25 00:56:17;;;;;;;0.10;0.10;;;;;;;;;;4951074;28;20409;-78
2022/10/25 00:58:45;;;;;;;0.10;0.10;;;;;;;;;;4954441;28;20432;-78
2022/10/25 01:01:13;;;;;;;0.10;0.10;;;;;;;;;;4966806;28;20452;-78
2022/10/25 01:03:40;;;;;;;0.20;0.20;;;;;;;;;;4966371;28;20430;-78
2022/10/25 01:06:10;;;;;;;1.30;0.70;;;;;;;;;;4951578;28;20461;-79
2022/10/25 01:08:36;;;;;;;1.45;0.98;;;;;;;;;;4952390;28;20413;-80
2022/10/25 01:11:03;;;;;;;0.10;0.10;;;;;;;;;;4955315;28;20413;-78
2022/10/25 01:13:29;;;;;;;0.00;0.00;;;;;;;;;;4954603;28;20398;-79
2022/10/25 01:16:14;;;;;;;0.10;0.10;;;;;;;;;;4969655;28;20893;-79
2022/10/25 01:18:46;;;;;;;0.13;0.13;;;;;;;;;;4955269;29;20406;-79
2022/10/25 01:21:15;;;;;;;0.15;0.15;;;;;;;;;;4969699;28;20410;-79
2022/10/25 01:23:54;;;;;;;0.10;0.10;;;;;;;;;;4955294;29;20433;-80
2022/10/25 01:26:39;;;;;;;0.30;0.30;;;;;;;;;;4969231;28;20457;-79
2022/10/25 01:29:05;;;;;;;0.30;0.30;;;;;;;;;;4954705;29;20472;-80
2022/10/25 01:31:34;;;;;;;0.10;0.10;;;;;;;;;;4953440;29;20425;-79
2022/10/25 01:34:13;;;;;;;0.88;0.50;;;;;;;;;;4954617;29;20418;-79
2022/10/25 01:36:48;;;;;;;0.10;0.10;;;;;;;;;;4954677;29;20425;-79
2022/10/25 01:39:24;;;;;;;1.88;0.52;;;;;;;;;;4954843;29;20793;-79
2022/10/25 01:42:00;;;;;;;0.03;0.03;;;;;;;;;;4953954;28;20482;-79
2022/10/25 01:44:33;;;;;;;0.30;0.30;;;;;;;;;;4953394;29;20434;-79
2022/10/25 01:47:04;;;;;;;0.10;0.10;;;;;;;;;;4968823;28;20410;-79
2022/10/25 01:49:37;;;;;;;0.20;0.20;;;;;;;;;;4969707;28;20422;-80
2022/10/25 01:52:03;;;;;;;0.80;0.60;;;;;;;;;;4954615;28;20448;-79
2022/10/25 01:54:29;;;;;;;0.30;0.30;;;;;;;;;;4954297;29;20430;-79
2022/10/25 01:56:55;;;;;;;0.10;0.10;;;;;;;;;;4954221;29;20449;-79
2022/10/25 01:59:39;;;;;;;0.10;0.10;;;;;;;;;;4953150;29;20469;-78
2022/10/25 02:02:16;;;;;;;0.10;0.10;;;;;;;;;;4953305;29;20541;-80
2022/10/25 02:05:02;;;;;;;0.10;0.10;;;;;;;;;;4954131;28;20781;-80
2022/10/25 02:07:28;;;;;;;2.20;0.80;;;;;;;;;;4952908;29;20426;-80
2022/10/25 02:10:01;;;;;;;0.10;0.10;;;;;;;;;;4954203;28;20518;-80
2022/10/25 02:12:32;;;;;;;0.10;0.10;;;;;;;;;;4953923;28;20866;-80
2022/10/25 02:15:08;;;;;;;0.90;0.40;;;;;;;;;;4953650;28;20410;-79
2022/10/25 02:17:35;;;;;;;0.10;0.10;;;;;;;;;;4953846;29;20433;-80
2022/10/25 02:20:03;;;;;;;0.60;0.60;;;;;;;;;;4949966;28;20440;-80
2022/10/25 02:22:31;;;;;;;0.10;0.10;;;;;;;;;;4953401;28;20924;-80
2022/10/25 02:24:59;;;;;;;0.10;0.10;;;;;;;;;;4953189;28;20440;-79
2022/10/25 02:27:25;;;;;;;0.10;0.10;;;;;;;;;;4968866;28;20508;-80
2022/10/25 02:29:53;;;;;;;0.10;0.10;;;;;;;;;;4954355;28;20473;-79
2022/10/25 02:32:19;;;;;;;0.20;0.20;;;;;;;;;;4953869;28;20414;-80
2022/10/25 02:34:48;;;;;;;0.10;0.10;;;;;;;;;;4954034;29;20402;-79
2022/10/25 02:37:14;;;;;;;0.10;0.10;;;;;;;;;;4967926;28;20912;-80
2022/10/25 02:39:40;;;;;;;0.10;0.10;;;;;;;;;;4954030;29;20923;-79
2022/10/25 02:42:06;;;;;;;0.30;0.30;;;;;;;;;;4968258;28;20460;-79
2022/10/25 02:44:32;;;;;;;0.20;0.20;;;;;;;;;;4953306;28;20425;-80
2022/10/25 02:46:58;;;;;;;0.10;0.10;;;;;;;;;;4952545;28;20414;-80
2022/10/25 02:49:24;;;;;;;0.20;0.20;;;;;;;;;;4953260;28;20460;-80
2022/10/25 02:51:50;;;;;;;0.10;0.10;;;;;;;;;;4953764;28;20417;-80
2022/10/25 02:54:16;;;;;;;0.10;0.10;;;;;;;;;;4967611;28;20461;-80
2022/10/25 02:56:43;;;;;;;0.10;0.10;;;;;;;;;;4953690;28;20531;-79
2022/10/25 02:59:10;;;;;;;0.10;0.10;;;;;;;;;;4952475;29;20804;-79
2022/10/25 03:01:36;;;;;;;0.38;0.38;;;;;;;;;;4953657;28;20405;-79
2022/10/25 03:04:02;;;;;;;0.10;0.10;;;;;;;;;;4951206;29;20434;-79
2022/10/25 03:06:29;;;;;;;0.10;0.10;;;;;;;;;;4953205;29;20410;-79
2022/10/25 03:08:55;;;;;;;0.00;0.00;;;;;;;;;;4952813;28;20413;-80
2022/10/25 03:11:21;;;;;;;0.00;0.00;;;;;;;;;;4953051;28;20900;-79
2022/10/25 03:13:47;;;;;;;0.10;0.10;;;;;;;;;;4952744;28;20761;-79
2022/10/25 03:16:13;;;;;;;0.10;0.10;;;;;;;;;;4953249;28;20899;-79
2022/10/25 03:18:39;;;;;;;0.10;0.10;;;;;;;;;;4953944;29;20413;-79
2022/10/25 03:21:06;;;;;;;0.20;0.20;;;;;;;;;;4953602;29;20798;-79
2022/10/25 03:23:32;;;;;;;0.10;0.10;;;;;;;;;;4953329;28;20429;-79
2022/10/25 03:25:59;;;;;;;0.10;0.10;;;;;;;;;;4951494;29;20425;-79
2022/10/25 03:28:28;;;;;;;0.10;0.10;;;;;;;;;;4952494;28;20402;-79
2022/10/25 03:30:55;;;;;;;0.10;0.10;;;;;;;;;;4950623;28;20469;-79
2022/10/25 03:33:21;;;;;;;0.05;0.05;;;;;;;;;;4953104;28;20889;-80
2022/10/25 03:35:51;;;;;;;0.00;0.00;;;;;;;;;;4953520;28;20497;-79
2022/10/25 03:38:17;;;;;;;0.10;0.10;;;;;;;;;;4951990;28;20433;-80
2022/10/25 03:40:43;;;;;;;0.00;0.00;;;;;;;;;;4968104;28;20505;-79
2022/10/25 03:43:09;;;;;;;0.10;0.10;;;;;;;;;;4952353;29;20486;-80
2022/10/25 03:45:35;;;;;;;0.28;0.28;;;;;;;;;;4952559;29;20414;-79
2022/10/25 03:48:01;;;;;;;0.10;0.10;;;;;;;;;;4951959;29;20445;-80
2022/10/25 03:50:27;;;;;;;0.10;0.10;;;;;;;;;;4952528;29;20410;-79
2022/10/25 03:52:53;;;;;;;0.10;0.10;;;;;;;;;;4951569;29;20468;-79
2022/10/25 03:55:19;;;;;;;0.00;0.00;;;;;;;;;;4951778;28;20413;-79
2022/10/25 03:57:45;;;;;;;0.10;0.10;;;;;;;;;;4951154;29;20433;-79
2022/10/25 04:00:11;;;;;;;0.10;0.10;;;;;;;;;;4951969;29;20483;-79
2022/10/25 04:02:38;;;;;;;0.20;0.20;;;;;;;;;;4951213;29;20554;-79
2022/10/25 04:05:04;;;;;;;0.10;0.10;;;;;;;;;;4949896;29;20446;-79
2022/10/25 04:07:30;;;;;;;0.10;0.10;;;;;;;;;;4952270;29;20414;-79
2022/10/25 04:09:56;;;;;;;0.10;0.10;;;;;;;;;;4950300;28;20923;-79
2022/10/25 04:12:22;;;;;;;0.10;0.10;;;;;;;;;;4950888;29;20421;-79
2022/10/25 04:14:48;;;;;;;0.17;0.17;;;;;;;;;;4950602;29;20413;-79
2022/10/25 04:17:14;;;;;;;0.08;0.08;;;;;;;;;;4951942;28;20414;-79
2022/10/25 04:19:40;;;;;;;0.60;0.50;;;;;;;;;;4950229;28;20909;-80
2022/10/25 04:22:06;;;;;;;0.10;0.10;;;;;;;;;;4965296;28;20420;-82
2022/10/25 04:24:32;;;;;;;0.10;0.10;;;;;;;;;;4965940;28;20433;-76
2022/10/25 04:26:58;;;;;;;0.10;0.10;;;;;;;;;;4952397;29;20417;-75
2022/10/25 04:29:24;;;;;;;0.10;0.10;;;;;;;;;;4951380;28;20402;-76
2022/10/25 04:31:50;;;;;;;0.20;0.20;;;;;;;;;;4951122;29;20802;-74
2022/10/25 04:34:16;;;;;;;0.15;0.15;;;;;;;;;;4951421;29;20916;-78
2022/10/25 04:36:42;;;;;;;0.10;0.10;;;;;;;;;;4951036;28;20408;-78
2022/10/25 04:39:09;;;;;;;0.10;0.10;;;;;;;;;;4951514;29;20770;-79
2022/10/25 04:41:35;;;;;;;0.10;0.10;;;;;;;;;;4951972;29;20410;-78
2022/10/25 04:44:01;;;;;;;0.10;0.10;;;;;;;;;;4952774;28;20524;-78
2022/10/25 04:46:27;;;;;;;0.10;0.10;;;;;;;;;;4954989;28;20405;-81
2022/10/25 04:48:53;;;;;;;0.00;0.00;;;;;;;;;;4955517;29;20402;-77
2022/10/25 04:51:19;;;;;;;0.10;0.10;;;;;;;;;;4970658;28;20433;-77
2022/10/25 04:53:45;;;;;;;0.20;0.20;;;;;;;;;;4955677;29;20418;-75
2022/10/25 04:56:13;;;;;;;0.00;0.00;;;;;;;;;;4954598;29;20417;-78
2022/10/25 04:58:39;;;;;;;0.10;0.10;;;;;;;;;;4955250;29;20777;-78
2022/10/25 05:01:07;;;;;;;0.10;0.10;;;;;;;;;;4955018;28;20478;-79
2022/10/25 05:03:33;;;;;;;0.20;0.20;;;;;;;;;;4955444;29;20461;-79
2022/10/25 05:06:06;;;;;;;0.20;0.20;;;;;;;;;;4954954;29;20425;-79
2022/10/25 05:08:33;;;;;;;0.10;0.10;;;;;;;;;;4955841;28;20420;-79
2022/10/25 05:10:59;;;;;;;0.10;0.10;;;;;;;;;;4956017;29;20429;-78
2022/10/25 05:13:25;;;;;;;0.10;0.10;;;;;;;;;;4955137;28;20472;-79
2022/10/25 05:15:55;;;;;;;0.10;0.10;;;;;;;;;;4956064;29;20500;-79
2022/10/25 05:18:21;;;;;;;0.30;0.30;;;;;;;;;;4954920;29;20429;-79
2022/10/25 05:20:54;;;;;;;0.10;0.10;;;;;;;;;;4956277;29;20497;-79
2022/10/25 05:23:20;;;;;;;0.10;0.10;;;;;;;;;;4954132;29;20433;-79
2022/10/25 05:25:47;;;;;;;0.10;0.10;;;;;;;;;;4956172;29;20410;-79
2022/10/25 05:28:13;;;;;;;0.10;0.10;;;;;;;;;;4971011;28;20414;-79
2022/10/25 05:30:42;;;;;;;0.10;0.10;;;;;;;;;;4956074;29;20449;-79
2022/10/25 05:33:09;;;;;;;0.20;0.20;;;;;;;;;;4970453;28;20450;-80
2022/10/25 05:35:35;;;;;;;0.00;0.00;;;;;;;;;;4955937;28;20489;-79
2022/10/25 05:38:01;;;;;;;0.30;0.30;;;;;;;;;;4955749;28;20416;-78
2022/10/25 05:40:27;;;;;;;0.10;0.10;;;;;;;;;;4970443;28;20792;-79
2022/10/25 05:42:54;;;;;;;0.10;0.10;;;;;;;;;;4970827;28;20794;-80
2022/10/25 05:45:20;;;;;;;0.70;0.50;;;;;;;;;;4955003;28;20996;-79
2022/10/25 05:47:46;;;;;;;0.20;0.20;;;;;;;;;;4970382;28;20897;-79
2022/10/25 05:50:12;;;;;;;0.10;0.10;;;;;;;;;;4970282;28;20813;-79
2022/10/25 05:52:42;;;;;;;0.10;0.10;;;;;;;;;;4955595;29;20410;-79
2022/10/25 05:55:08;;;;;;;0.10;0.10;;;;;;;;;;4970092;28;20487;-79
2022/10/25 05:57:34;;;;;;;0.10;0.10;;;;;;;;;;4954245;29;20445;-78
2022/10/25 06:00:00;;;;;;;0.10;0.10;;;;;;;;;;4955578;28;20428;-78
2022/10/25 06:02:26;;;;;;;0.10;0.10;;;;;;;;;;4954457;29;20876;-79
2022/10/25 06:04:52;;;;;;;0.00;0.00;;;;;;;;;;4955253;28;20813;-79
2022/10/25 06:07:18;;;;;;;0.10;0.10;;;;;;;;;;4970474;28;20454;-79
2022/10/25 06:09:44;;;;;;;0.10;0.10;;;;;;;;;;4954696;29;20468;-79
2022/10/25 06:12:10;;;;;;;0.10;0.10;;;;;;;;;;4955435;29;20421;-78
2022/10/25 06:14:36;;;;;;;0.10;0.10;;;;;;;;;;4969934;28;20445;-79
2022/10/25 06:17:02;;;;;;;0.10;0.10;;;;;;;;;;4954362;29;20496;-78
2022/10/25 06:19:28;;;;;;;0.10;0.10;;;;;;;;;;4969915;28;20418;-79
2022/10/25 06:21:55;;;;;;;0.10;0.10;;;;;;;;;;4954633;28;20416;-79
2022/10/25 06:24:21;;;;;;;0.20;0.20;;;;;;;;;;4953576;29;20824;-79
2022/10/25 06:26:47;;;;;;;0.20;0.20;;;;;;;;;;4954813;28;20406;-79
2022/10/25 06:29:13;;;;;;;0.10;0.10;;;;;;;;;;4954507;28;20417;-80
2022/10/25 06:31:41;;;;;;;0.10;0.10;;;;;;;;;;4970241;28;20498;-79
2022/10/25 06:34:07;;;;;;;0.10;0.10;;;;;;;;;;4954007;29;20909;-78
2022/10/25 06:36:33;;;;;;;0.10;0.10;;;;;;;;;;4954356;29;20416;-79
2022/10/25 06:38:59;;;;;;;0.10;0.10;;;;;;;;;;4954696;28;20818;-79
2022/10/25 06:41:27;;;;;;;0.07;0.07;;;;;;;;;;4969732;28;20458;-79
2022/10/25 06:43:54;;;;;;;0.10;0.10;;;;;;;;;;4954323;28;20881;-78
2022/10/25 06:46:20;;;;;;;0.10;0.10;;;;;;;;;;4953986;28;20489;-79
2022/10/25 06:48:46;;;;;;;0.20;0.20;;;;;;;;;;4954363;29;20904;-79
2022/10/25 06:51:12;;;;;;;0.60;0.50;;;;;;;;;;4954396;29;20596;-78
2022/10/25 06:53:38;;;;;;;0.10;0.10;;;;;;;;;;4953433;29;20425;-79
2022/10/25 06:56:06;;;;;;;0.10;0.10;;;;;;;;;;4954394;28;20445;-78
2022/10/25 06:58:33;;;;;;;0.10;0.10;;;;;;;;;;4968969;28;20422;-79
2022/10/25 07:01:02;;;;;;;0.10;0.10;;;;;;;;;;4954160;28;20829;-80
2022/10/25 07:03:33;;;;;;;0.10;0.10;;;;;;;;;;4968981;28;20516;-80
2022/10/25 07:06:00;;;;;;;0.10;0.10;;;;;;;;;;4953994;28;20426;-80
2022/10/25 07:08:26;;;;;;;0.10;0.10;;;;;;;;;;4953818;28;20406;-79
2022/10/25 07:10:53;;;;;;;0.00;0.00;;;;;;;;;;4969293;28;20812;-78
2022/10/25 07:13:19;;;;;;;0.10;0.10;;;;;;;;;;4952585;29;20422;-81
2022/10/25 07:15:45;;;;;;;0.10;0.10;;;;;;;;;;4953795;29;20461;-78
2022/10/25 07:18:11;;;;;;;0.00;0.00;;;;;;;;;;4953194;28;20406;-81
2022/10/25 07:20:37;;;;;;;0.10;0.10;;;;;;;;;;4968905;28;20500;-78
2022/10/25 07:23:03;;;;;;;0.00;0.00;;;;;;;;;;4969270;28;20434;-78
2022/10/25 07:25:30;;;;;;;0.00;0.00;;;;;;;;;;4968462;28;20445;-81
2022/10/25 07:27:56;;;;;;;0.10;0.10;;;;;;;;;;4952845;28;20410;-81
2022/10/25 07:30:22;;;;;;;0.10;0.10;;;;;;;;;;4953718;29;20453;-80
2022/10/25 07:32:48;;;;;;;0.00;0.00;;;;;;;;;;4951832;29;20826;-81
2022/10/25 07:35:14;;;;;;;0.00;0.00;;;;;;;;;;4953195;29;20429;-81
2022/10/25 07:37:40;;;;;;;0.10;0.10;;;;;;;;;;4968205;28;20873;-81
2022/10/25 07:40:06;;;;;;;0.10;0.10;;;;;;;;;;4953808;29;20951;-81
2022/10/25 07:42:33;;;;;;;0.10;0.10;;;;;;;;;;4953644;29;20413;-81
2022/10/25 07:44:59;;;;;;;0.30;0.30;;;;;;;;;;4953730;28;20845;-81
2022/10/25 07:47:25;;;;;;;0.30;0.20;;;;;;;;;;4968523;28;20413;-81
2022/10/25 07:49:51;;;;;;;0.10;0.10;;;;;;;;;;4954025;29;20481;-80
2022/10/25 07:52:18;;;;;;;0.10;0.10;;;;;;;;;;4969013;28;20897;-81
2022/10/25 07:54:44;;;;;;;0.00;0.00;;;;;;;;;;4952486;29;20980;-81
2022/10/25 07:57:10;;;;;;;0.10;0.10;;;;;;;;;;4953840;29;20919;-81
2022/10/25 07:59:36;;;;;;;0.10;0.10;;;;;;;;;;4953308;28;20484;-81
2022/10/25 08:02:02;;;;;;;0.30;0.30;;;;;;;;;;4952739;29;20413;-81
2022/10/25 08:04:31;;;;;;;0.10;0.10;;;;;;;;;;4952954;28;20532;-81
2022/10/25 08:07:00;;;;;;;0.10;0.10;;;;;;;;;;4953881;29;20399;-81
2022/10/25 08:09:26;;;;;;;0.20;0.20;;;;;;;;;;4952870;29;20940;-81
2022/10/25 08:11:53;;;;;;;0.10;0.10;;;;;;;;;;4953772;28;20445;-81
2022/10/25 08:14:19;;;;;;;0.10;0.10;;;;;;;;;;4968610;28;20428;-81
2022/10/25 08:16:45;;;;;;;0.10;0.10;;;;;;;;;;4968060;28;20426;-81
2022/10/25 08:19:11;;;;;;;0.10;0.10;;;;;;;;;;4968156;28;20486;-81
2022/10/25 08:21:37;;;;;;;0.10;0.10;;;;;;;;;;4967975;28;20788;-81
2022/10/25 08:24:03;;;;;;;0.10;0.10;;;;;;;;;;4953432;28;20573;-81
2022/10/25 08:26:29;;;;;;;0.10;0.10;;;;;;;;;;4953179;28;20889;-81
2022/10/25 08:28:55;;;;;;;0.10;0.10;;;;;;;;;;4952316;29;20410;-81
2022/10/25 08:31:21;;;;;;;0.40;0.40;;;;;;;;;;4968307;28;20409;-81
2022/10/25 08:33:47;;;;;;;0.70;0.40;;;;;;;;;;4953499;29;20406;-81
2022/10/25 08:36:13;;;;;;;0.10;0.10;;;;;;;;;;4968589;28;20529;-80
2022/10/25 08:38:39;;;;;;;0.10;0.10;;;;;;;;;;4952898;28;20417;-81
2022/10/25 08:41:20;;;;;;;0.10;0.10;;;;;;;;;;4952179;29;20841;-81
2022/10/25 08:44:10;;;;;;;0.20;0.20;;;;;;;;;;4952903;29;20521;-81
2022/10/25 08:46:42;;;;;;;0.10;0.10;;;;;;;;;;4952872;29;20869;-81
2022/10/25 08:49:11;;;;;;;0.10;0.10;;;;;;;;;;4953323;29;20425;-80
2022/10/25 08:51:38;;;;;;;0.40;0.40;;;;;;;;;;4952666;29;20421;-80
2022/10/25 08:54:11;;;;;;;0.00;0.00;;;;;;;;;;4953172;28;20439;-80
2022/10/25 08:56:37;;;;;;;0.90;0.50;;;;;;;;;;4952127;29;20449;-80
2022/10/25 08:59:04;;;;;;;0.10;0.10;;;;;;;;;;4953068;29;20406;-80
2022/10/25 09:01:40;;;;;;;0.10;0.10;;;;;;;;;;4952597;28;20471;-80
2022/10/25 09:04:06;;;;;;;0.10;0.10;;;;;;;;;;4967864;28;20441;-79
2022/10/25 09:06:43;;;;;;;0.10;0.10;;;;;;;;;;4952706;29;20433;-81
2022/10/25 09:09:15;;;;;;;0.10;0.10;;;;;;;;;;4952925;29;20489;-80
2022/10/25 09:11:41;;;;;;;0.90;0.40;;;;;;;;;;4952421;29;20402;-80
2022/10/25 09:14:13;;;;;;;0.10;0.10;;;;;;;;;;4952932;29;20429;-80
2022/10/25 09:16:42;;;;;;;0.60;0.60;;;;;;;;;;4951320;29;20426;-80
2022/10/25 09:19:15;;;;;;;0.28;0.28;;;;;;;;;;4952543;29;20873;-80
2022/10/25 09:21:59;;;;;;;0.10;0.10;;;;;;;;;;4967545;28;20410;-80
2022/10/25 09:24:25;;;;;;;0.03;0.03;;;;;;;;;;4952689;28;20434;-81
2022/10/25 09:26:51;;;;;;;0.10;0.10;;;;;;;;;;4968067;28;20418;-80
2022/10/25 09:29:23;;;;;;;0.10;0.10;;;;;;;;;;4952591;28;20462;-80
2022/10/25 09:31:51;;;;;;;0.10;0.10;;;;;;;;;;4956052;28;20412;-81
2022/10/25 09:34:18;;;;;;;0.10;0.10;;;;;;;;;;4955966;28;20402;-81
2022/10/25 09:36:46;;;;;;;0.10;0.10;;;;;;;;;;4954969;29;20822;-81
2022/10/25 09:39:20;;;;;;;0.10;0.10;;;;;;;;;;4971388;28;20413;-80
2022/10/25 09:41:49;;;;;;;0.10;0.10;;;;;;;;;;4955823;29;20410;-81
2022/10/25 09:44:15;;;;;;;0.10;0.10;;;;;;;;;;4954614;29;20444;-80
2022/10/25 09:46:43;;;;;;;0.10;0.10;;;;;;;;;;4954614;29;20841;-81
2022/10/25 09:49:23;;;;;;;0.10;0.10;;;;;;;;;;4971243;28;20414;-80
2022/10/25 09:51:59;;;;;;;0.20;0.20;;;;;;;;;;4954830;29;20425;-80
2022/10/25 09:54:34;;;;;;;0.20;0.20;;;;;;;;;;4955460;29;20414;-80
2022/10/25 09:57:00;;;;;;;0.10;0.10;;;;;;;;;;4955660;29;20417;-80
2022/10/25 09:59:27;;;;;;;1.60;0.80;;;;;;;;;;4954610;29;20464;-80
2022/10/25 10:01:53;;;;;;;0.10;0.10;;;;;;;;;;4954695;29;20410;-80
2022/10/25 10:04:25;;;;;;;0.15;0.15;;;;;;;;;;4955389;29;20489;-79
2022/10/25 10:06:53;;;;;;;0.40;0.40;;;;;;;;;;4955179;28;20501;-80
2022/10/25 10:09:19;;;;;;;0.10;0.10;;;;;;;;;;4970765;28;20418;-80
2022/10/25 10:11:47;;;;;;;0.17;0.17;;;;;;;;;;4954719;29;20501;-80
2022/10/25 10:14:13;;;;;;;0.17;0.17;;;;;;;;;;4955166;28;20769;-79
2022/10/25 10:16:42;;;;;;;0.10;0.10;;;;;;;;;;4954386;29;20410;-79
2022/10/25 10:19:22;;;;;;;0.10;0.10;;;;;;;;;;4954005;29;20489;-78
2022/10/25 10:21:48;;;;;;;0.10;0.10;;;;;;;;;;4953838;28;20456;-80
2022/10/25 10:24:20;;;;;;;0.30;0.30;;;;;;;;;;4952992;29;20441;-81
2022/10/25 10:26:56;;;;;;;0.10;0.10;;;;;;;;;;4954018;29;20918;-81
2022/10/25 10:29:31;;;;;;;0.50;0.30;;;;;;;;;;4953933;29;20872;-81
2022/10/25 10:32:01;;;;;;;0.00;0.00;;;;;;;;;;4969731;28;20446;-81
2022/10/25 10:34:31;;;;;;;0.10;0.10;;;;;;;;;;4954291;28;20397;-81
2022/10/25 10:37:01;;;;;;;0.20;0.20;;;;;;;;;;4969815;28;20430;-81
2022/10/25 10:39:27;;;;;;;0.10;0.10;;;;;;;;;;4968974;28;20500;-80
2022/10/25 10:42:04;;;;;;;0.70;0.70;;;;;;;;;;4953822;28;20414;-81
2022/10/25 10:44:33;;;;;;;0.10;0.10;;;;;;;;;;4954346;29;20488;-80
2022/10/25 10:47:00;;;;;;;0.10;0.10;;;;;;;;;;4953259;29;20418;-80
2022/10/25 10:49:33;;;;;;;0.20;0.20;;;;;;;;;;4953878;29;20412;-81
2022/10/25 10:52:01;;;;;;;0.10;0.10;;;;;;;;;;4969216;28;20410;-81
2022/10/25 10:54:28;;;;;;;0.10;0.10;;;;;;;;;;4954130;29;20409;-80
2022/10/25 10:57:17;;;;;;;0.10;0.10;;;;;;;;;;4953926;28;20410;-80
2022/10/25 10:59:51;;;;;;;0.10;0.10;;;;;;;;;;4967581;28;20414;-80
2022/10/25 11:02:23;;;;;;;0.10;0.10;;;;;;;;;;4952444;29;20414;-81
2022/10/25 11:04:50;;;;;;;0.20;0.20;;;;;;;;;;4952227;29;20979;-81
2022/10/25 11:07:27;;;;;;;0.20;0.20;;;;;;;;;;4952719;29;20420;-81
2022/10/25 11:10:13;;;;;;;0.10;0.10;;;;;;;;;;4953289;28;20939;-80
2022/10/25 11:12:40;;;;;;;0.10;0.10;;;;;;;;;;4968908;28;20414;-80
2022/10/25 11:15:15;;;;;;;0.10;0.10;;;;;;;;;;4953323;29;20424;-80
2022/10/25 11:17:45;;;;;;;0.10;0.10;;;;;;;;;;4953350;29;20488;-79
2022/10/25 11:20:20;;;;;;;0.20;0.20;;;;;;;;;;4953422;28;20417;-79
2022/10/25 11:23:15;;;;;;;0.40;0.30;;;;;;;;;;4953527;29;20429;-80
2022/10/25 11:25:44;;;;;;;0.50;0.50;;;;;;;;;;4955422;28;20836;-80
2022/10/25 11:28:13;;;;;;;0.20;0.20;;;;;;;;;;4952976;28;20508;-80
2022/10/25 11:30:45;;;;;;;0.40;0.20;;;;;;;;;;4952843;28;20980;-80
2022/10/25 11:33:18;;;;;;;0.10;0.10;;;;;;;;;;4950891;29;20421;-82
2022/10/25 11:35:47;;;;;;;0.40;0.40;;;;;;;;;;4952953;28;20445;-82
2022/10/25 11:38:16;;;;;;;0.10;0.10;;;;;;;;;;4966847;28;20908;-82
2022/10/25 11:40:52;;;;;;;0.10;0.10;;;;;;;;;;4951551;28;20425;-82
2022/10/25 11:43:30;;;;;;;0.10;0.10;;;;;;;;;;4950305;29;20429;-81
2022/10/25 11:45:59;;;;;;;0.10;0.10;;;;;;;;;;4967368;28;20472;-79
2022/10/25 11:48:42;;;;;;;0.10;0.10;;;;;;;;;;4950742;29;20923;-80
2022/10/25 11:51:14;;;;;;;0.50;0.50;;;;;;;;;;4950679;29;20429;-77
2022/10/25 11:53:54;;;;;;;0.20;0.20;;;;;;;;;;4951032;28;20418;-77
2022/10/25 11:56:22;;;;;;;0.10;0.10;;;;;;;;;;4952342;29;20414;-78
2022/10/25 11:58:51;;;;;;;0.10;0.10;;;;;;;;;;4952449;29;20461;-78
2022/10/25 12:01:21;;;;;;;0.10;0.10;;;;;;;;;;4952341;29;20414;-79
2022/10/25 12:03:52;;;;;;;0.17;0.17;;;;;;;;;;4952073;28;21053;-78
2022/10/25 12:06:45;;;;;;;0.10;0.10;;;;;;;;;;4951535;28;20426;-79
2022/10/25 12:09:46;;;;;;;0.10;0.10;;;;;;;;;;4953397;28;20428;-78
2022/10/25 12:12:15;;;;;;;0.17;0.17;;;;;;;;;;4968894;28;20974;-78
2022/10/25 12:14:44;;;;;;;0.10;0.10;;;;;;;;;;4955311;28;21098;-79
2022/10/25 12:17:27;;;;;;;0.20;0.20;;;;;;;;;;4951936;29;20472;-78
2022/10/25 12:19:55;;;;;;;0.10;0.10;;;;;;;;;;4967547;28;20488;-76
2022/10/25 12:22:25;;;;;;;0.20;0.20;;;;;;;;;;4951332;28;20410;-76
2022/10/25 12:24:59;;;;;;;0.10;0.10;;;;;;;;;;4951121;28;20477;-77
2022/10/25 12:27:26;;;;;;;0.10;0.10;;;;;;;;;;4951155;29;20912;-77
2022/10/25 12:29:57;;;;;;;0.10;0.10;;;;;;;;;;4951112;28;20445;-78
2022/10/25 12:32:49;;;;;;;0.20;0.20;;;;;;;;;;4950146;29;20761;-77
2022/10/25 12:35:35;;;;;;;0.10;0.10;;;;;;;;;;4957988;28;20417;-78
2022/10/25 12:38:04;;;;;;;0.10;0.10;;;;;;;;;;4951945;29;20408;-77
2022/10/25 12:40:32;;;;;;;0.10;0.10;;;;;;;;;;4951993;28;20443;-78
2022/10/25 12:43:05;;;;;;;0.10;0.10;;;;;;;;;;4951152;29;20426;-78
2022/10/25 12:45:37;;;;;;;0.22;0.22;;;;;;;;;;4952802;29;20477;-77
2022/10/25 12:48:12;;;;;;;0.10;0.10;;;;;;;;;;4951856;29;20904;-78
2022/10/25 12:50:47;;;;;;;0.10;0.10;;;;;;;;;;4952674;29;20417;-78
2022/10/25 12:53:28;;;;;;;0.10;0.10;;;;;;;;;;4951568;29;20430;-78
2022/10/25 12:55:57;;;;;;;0.10;0.10;;;;;;;;;;4951953;29;20421;-78
2022/10/25 12:58:31;;;;;;;0.10;0.10;;;;;;;;;;4951166;29;20426;-78
2022/10/25 13:01:00;;;;;;;0.10;0.10;;;;;;;;;;4950774;28;20441;-78
2022/10/25 13:03:33;;;;;;;0.10;0.10;;;;;;;;;;4951769;28;20436;-81
2022/10/25 13:06:15;;;;;;;0.87;0.40;;;;;;;;;;4955458;29;20630;-79
2022/10/25 13:08:41;;;;;;;0.10;0.10;;;;;;;;;;4954993;29;20410;-79
2022/10/25 13:11:08;;;;;;;0.10;0.10;;;;;;;;;;4955322;29;20408;-78
2022/10/25 13:13:47;;;;;;;0.20;0.20;;;;;;;;;;4955838;28;20552;-78
2022/10/25 13:16:21;;;;;;;2.30;0.47;;;;;;;;;;4954494;28;20425;-80
2022/10/25 13:18:48;;;;;;;0.10;0.10;;;;;;;;;;4953226;28;20964;-78
2022/10/25 13:21:15;;;;;;;0.10;0.10;;;;;;;;;;4955608;28;20409;-79
2022/10/25 13:23:49;;;;;;;0.10;0.10;;;;;;;;;;4970659;28;20487;-78
2022/10/25 13:26:16;;;;;;;0.10;0.10;;;;;;;;;;4970598;28;20414;-75
2022/10/25 13:28:46;;;;;;;0.10;0.10;;;;;;;;;;4955318;28;20414;-78
2022/10/25 13:31:30;;;;;;;0.10;0.10;;;;;;;;;;4971061;28;20398;-80
2022/10/25 13:34:14;;;;;;;0.10;0.10;;;;;;;;;;4955146;29;20875;-78
2022/10/25 13:36:46;;;;;;;0.40;0.40;;;;;;;;;;4969920;28;20473;-77
2022/10/25 13:39:17;;;;;;;0.00;0.00;;;;;;;;;;4955238;29;20410;-79
2022/10/25 13:41:47;;;;;;;0.10;0.10;;;;;;;;;;4954958;28;20904;-79
2022/10/25 13:44:20;;;;;;;0.10;0.10;;;;;;;;;;4955617;28;20429;-78
2022/10/25 13:46:47;;;;;;;0.10;0.10;;;;;;;;;;4954783;29;20497;-78
2022/10/25 13:49:34;;;;;;;0.10;0.10;;;;;;;;;;4954443;28;20465;-78
2022/10/25 13:52:04;;;;;;;0.10;0.10;;;;;;;;;;4954023;28;20420;-77
2022/10/25 13:54:42;;;;;;;0.20;0.20;;;;;;;;;;4954265;29;20433;-78
2022/10/25 13:57:28;;;;;;;0.10;0.10;;;;;;;;;;4955420;28;20497;-78
2022/10/25 13:59:54;;;;;;;0.10;0.10;;;;;;;;;;4954991;28;20409;-78
2022/10/25 14:02:21;;;;;;;0.10;0.10;;;;;;;;;;4953195;29;20743;-78
2022/10/25 14:04:47;;;;;;;0.10;0.10;;;;;;;;;;4955013;28;20422;-77
2022/10/25 14:07:32;;;;;;;0.10;0.10;;;;;;;;;;4969388;28;20476;-79
2022/10/25 14:09:58;;;;;;;0.10;0.10;;;;;;;;;;4954766;29;20484;-79
2022/10/25 14:12:24;;;;;;;0.10;0.10;;;;;;;;;;4953649;29;20417;-80
2022/10/25 14:14:57;;;;;;;0.10;0.10;;;;;;;;;;4953426;28;20496;-79
2022/10/25 14:17:38;;;;;;;0.10;0.10;;;;;;;;;;4953384;28;20421;-78
2022/10/25 14:20:10;;;;;;;0.20;0.20;;;;;;;;;;4954425;28;20757;-79
2022/10/25 14:22:39;;;;;;;0.63;0.63;;;;;;;;;;4954611;29;20450;-78
2022/10/25 14:25:07;;;;;;;0.10;0.10;;;;;;;;;;4954106;29;20429;-79
2022/10/25 14:27:35;;;;;;;0.10;0.10;;;;;;;;;;4954242;28;20414;-80
2022/10/25 14:30:13;;;;;;;0.10;0.10;;;;;;;;;;4954597;29;20422;-79
2022/10/25 14:32:39;;;;;;;0.10;0.10;;;;;;;;;;4954804;29;20472;-79
2022/10/25 14:35:06;;;;;;;0.10;0.10;;;;;;;;;;4969585;28;20472;-78
2022/10/25 14:37:32;;;;;;;0.10;0.10;;;;;;;;;;4953828;29;20418;-78
2022/10/25 14:39:58;;;;;;;0.10;0.10;;;;;;;;;;4969342;28;20441;-77
2022/10/25 14:42:24;;;;;;;0.10;0.10;;;;;;;;;;4954335;28;20410;-78
2022/10/25 14:44:53;;;;;;;0.20;0.20;;;;;;;;;;4954749;28;20430;-78
2022/10/25 14:47:29;;;;;;;0.10;0.10;;;;;;;;;;4954732;28;20421;-78
2022/10/25 14:49:57;;;;;;;0.10;0.10;;;;;;;;;;4954370;29;20429;-78
2022/10/25 14:52:23;;;;;;;0.10;0.10;;;;;;;;;;4953843;28;20425;-82
2022/10/25 14:54:54;;;;;;;0.90;0.40;;;;;;;;;;4954095;28;20781;-81
2022/10/25 14:57:22;;;;;;;2.05;0.45;;;;;;;;;;4951769;28;20894;-79